createdAt,value
2023-03-13T00:03:08.645Z,2.40
2023-03-13T00:08:01.487Z,2.37
2023-03-13T00:12:54.152Z,2.50
2023-03-13T00:17:46.844Z,2.40
2023-03-13T00:22:40.794Z,2.40
2023-03-13T00:27:33.952Z,2.80
2023-03-13T00:32:26.673Z,2.33
2023-03-13T00:37:19.578Z,2.27
2023-03-13T00:42:13.506Z,2.20
2023-03-13T00:47:07.118Z,2.10
2023-03-13T00:52:00.061Z,2.43
2023-03-13T00:56:52.665Z,2.13
2023-03-13T01:01:47.909Z,2.63
2023-03-13T01:06:42.821Z,1.83
2023-03-13T01:11:36.878Z,1.90
2023-03-13T01:16:30.512Z,2.07
2023-03-13T01:21:25.172Z,1.87
2023-03-13T01:26:17.897Z,2.33
2023-03-13T01:31:13.871Z,1.80
2023-03-13T01:36:07.075Z,1.57
2023-03-13T01:41:01.378Z,1.87
2023-03-13T01:45:57.347Z,1.97
2023-03-13T01:50:51.680Z,1.63
2023-03-13T01:55:51.142Z,2.00
2023-03-13T02:00:46.904Z,1.83
2023-03-13T02:05:39.855Z,1.80
2023-03-13T02:10:33.272Z,2.00
2023-03-13T02:15:26.971Z,2.17
2023-03-13T02:20:22.332Z,2.17
2023-03-13T02:25:23.806Z,2.20
2023-03-13T02:30:20.236Z,2.33
2023-03-13T02:35:14.651Z,2.20
2023-03-13T02:40:10.521Z,1.80
2023-03-13T02:45:03.189Z,2.00
2023-03-13T02:49:57.133Z,1.90
2023-03-13T02:54:52.210Z,1.77
2023-03-13T02:59:47.203Z,1.80
2023-03-13T03:04:40.250Z,1.50
2023-03-13T03:09:34.931Z,1.90
2023-03-13T03:14:32.438Z,1.60
2023-03-13T03:19:25.582Z,1.33
2023-03-13T03:24:18.305Z,1.50
2023-03-13T03:29:12.638Z,1.40
2023-03-13T03:34:06.556Z,1.53
2023-03-13T03:38:59.531Z,1.77
2023-03-13T03:43:53.354Z,2.00
2023-03-13T03:48:51.400Z,1.80
2023-03-13T03:53:44.105Z,1.50
2023-03-13T03:58:37.096Z,1.40
2023-03-13T04:04:03.291Z,1.40
2023-03-13T04:08:56.480Z,1.20
2023-03-13T04:13:52.238Z,1.27
2023-03-13T04:18:44.899Z,1.20
2023-03-13T04:23:39.178Z,1.20
2023-03-13T04:28:31.825Z,1.30
2023-03-13T04:33:25.075Z,1.13
2023-03-13T04:38:33.328Z,1.03
2023-03-13T04:43:47.563Z,1.00
2023-03-13T04:48:55.527Z,1.03
2023-03-13T04:53:51.076Z,1.30
2023-03-13T04:59:08.084Z,1.30
2023-03-13T05:04:26.144Z,1.33
2023-03-13T05:09:39.053Z,1.13
2023-03-13T05:14:45.618Z,1.20
2023-03-13T05:19:53.716Z,1.10
2023-03-13T05:25:09.641Z,1.40
2023-03-13T05:30:20.318Z,1.30
2023-03-13T05:35:33.501Z,1.23
2023-03-13T05:40:46.610Z,1.30
2023-03-13T05:46:03.473Z,1.30
2023-03-13T05:51:16.156Z,1.20
2023-03-13T05:56:17.461Z,1.10
2023-03-13T06:01:12.309Z,1.30
2023-03-13T06:06:07.980Z,1.30
2023-03-13T06:11:09.805Z,1.40
2023-03-13T06:16:03.443Z,1.47
2023-03-13T06:21:06.095Z,1.20
2023-03-13T06:25:58.679Z,1.40
2023-03-13T06:30:51.259Z,1.20
2023-03-13T06:35:55.587Z,1.10
2023-03-13T06:40:50.828Z,1.10
2023-03-13T06:45:43.527Z,1.27
2023-03-13T06:50:39.020Z,1.27
2023-03-13T06:55:31.958Z,1.10
2023-03-13T07:00:26.271Z,1.20
2023-03-13T07:05:19.193Z,1.20
2023-03-13T07:10:12.579Z,1.27
2023-03-13T07:15:05.957Z,1.40
2023-03-13T07:19:59.985Z,1.33
2023-03-13T07:24:52.683Z,1.40
2023-03-13T07:29:46.319Z,1.57
2023-03-13T07:34:38.865Z,1.30
2023-03-13T07:39:32.880Z,1.30
2023-03-13T07:44:25.577Z,1.50
2023-03-13T07:49:18.222Z,1.50
2023-03-13T07:54:11.761Z,1.50
2023-03-13T07:59:06.670Z,1.40
2023-03-13T08:04:02.204Z,1.30
2023-03-13T08:08:57.857Z,1.40
2023-03-13T08:13:50.884Z,1.60
2023-03-13T08:18:46.035Z,1.40
2023-03-13T08:23:38.950Z,1.10
2023-03-13T08:28:31.664Z,1.30
2023-03-13T08:33:24.427Z,1.30
2023-03-13T08:38:18.618Z,1.20
2023-03-13T08:43:11.310Z,1.40
2023-03-13T08:48:04.673Z,1.73
2023-03-13T08:52:57.640Z,1.60
2023-03-13T08:57:51.676Z,1.30
2023-03-13T09:02:44.368Z,1.30
2023-03-13T09:07:37.202Z,1.47
2023-03-13T09:12:31.634Z,1.63
2023-03-13T09:17:26.461Z,1.30
2023-03-13T09:22:19.228Z,1.70
2023-03-13T09:27:11.932Z,1.70
2023-03-13T09:32:05.090Z,1.90
2023-03-13T09:36:59.103Z,1.60
2023-03-13T09:41:56.974Z,1.60
2023-03-13T09:46:57.308Z,2.00
2023-03-13T09:51:52.051Z,2.10
2023-03-13T09:56:47.256Z,1.83
2023-03-13T10:01:41.356Z,2.10
2023-03-13T10:06:35.933Z,1.50
2023-03-13T10:11:29.384Z,1.70
2023-03-13T10:16:26.551Z,1.90
2023-03-13T10:21:20.748Z,1.60
2023-03-13T10:26:16.364Z,1.67
2023-03-13T10:31:11.106Z,1.70
2023-03-13T10:36:10.166Z,1.90
2023-03-13T10:41:06.442Z,1.50
2023-03-13T10:45:59.411Z,1.70
2023-03-13T10:50:53.147Z,1.57
2023-03-13T10:55:47.552Z,1.60
2023-03-13T11:00:42.565Z,1.60
2023-03-13T11:05:39.821Z,1.60
2023-03-13T11:10:32.610Z,1.70
2023-03-13T11:15:30.626Z,1.50
2023-03-13T11:20:25.713Z,1.57
2023-03-13T11:25:23.243Z,1.50
2023-03-13T11:30:22.865Z,1.40
2023-03-13T11:35:23.975Z,1.67
2023-03-13T11:40:20.566Z,1.50
2023-03-13T11:45:17.771Z,1.50
2023-03-13T11:50:16.619Z,1.60
2023-03-13T11:55:22.553Z,1.30
2023-03-13T12:00:18.760Z,1.63
2023-03-13T12:05:13.533Z,1.60
2023-03-13T12:10:10.984Z,1.10
2023-03-13T12:15:09.744Z,1.40
2023-03-13T12:20:07.847Z,1.30
2023-03-13T12:25:05.881Z,1.30
2023-03-13T12:30:01.287Z,1.30
2023-03-13T12:35:00.327Z,1.40
2023-03-13T12:39:54.874Z,1.60
2023-03-13T12:44:47.819Z,1.27
2023-03-13T12:50:00.176Z,1.20
2023-03-13T12:55:00.377Z,1.30
2023-03-13T12:59:55.451Z,1.13
2023-03-13T13:04:49.540Z,1.47
2023-03-13T13:09:59.917Z,1.37
2023-03-13T13:15:07.642Z,1.20
2023-03-13T13:20:21.881Z,1.20
2023-03-13T13:25:29.202Z,1.50
2023-03-13T13:30:32.902Z,1.50
2023-03-13T13:35:28.724Z,1.33
2023-03-13T13:40:27.501Z,1.40
2023-03-13T13:45:25.556Z,1.23
2023-03-13T13:50:19.417Z,1.30
2023-03-13T13:55:30.805Z,1.40
2023-03-13T14:00:27.207Z,1.70
2023-03-13T14:05:22.316Z,1.30
2023-03-13T14:10:22.514Z,1.40
2023-03-13T14:15:16.797Z,1.40
2023-03-13T14:20:28.154Z,1.30
2023-03-13T14:25:20.981Z,1.50
2023-03-13T14:30:15.411Z,1.30
2023-03-13T14:35:09.089Z,1.30
2023-03-13T14:40:09.924Z,1.30
2023-03-13T14:45:13.105Z,1.43
2023-03-13T14:50:10.559Z,1.50
2023-03-13T14:55:04.545Z,1.60
2023-03-13T15:00:19.663Z,1.60
2023-03-13T15:05:27.107Z,1.40
2023-03-13T15:10:21.377Z,1.40
2023-03-13T15:15:15.542Z,1.50
2023-03-13T15:20:11.330Z,1.60
2023-03-13T15:25:07.394Z,1.70
2023-03-13T15:30:00.650Z,1.60
2023-03-13T15:34:58.293Z,1.73
2023-03-13T15:39:50.878Z,1.60
2023-03-13T15:44:43.542Z,2.03
2023-03-13T15:49:36.123Z,1.73
2023-03-13T15:54:30.160Z,1.60
2023-03-13T15:59:22.821Z,1.83
2023-03-13T16:04:15.535Z,1.70
2023-03-13T16:09:08.437Z,1.60
2023-03-13T16:14:02.780Z,1.70
2023-03-13T16:18:55.958Z,1.60
2023-03-13T16:23:48.793Z,1.57
2023-03-13T16:28:41.455Z,1.90
2023-03-13T16:33:35.514Z,1.80
2023-03-13T16:38:28.129Z,1.90
2023-03-13T16:43:20.709Z,1.77
2023-03-13T16:48:17.428Z,1.60
2023-03-13T16:53:11.356Z,2.07
2023-03-13T16:58:04.391Z,2.00
2023-03-13T17:02:58.080Z,1.80
2023-03-13T17:07:51.303Z,2.90
2023-03-13T17:12:45.202Z,2.80
2023-03-13T17:17:38.625Z,2.70
2023-03-13T17:22:31.235Z,2.80
2023-03-13T17:27:24.038Z,2.60
2023-03-13T17:32:18.189Z,3.00
2023-03-13T17:37:14.879Z,8.00
2023-03-13T17:42:07.505Z,3.20
2023-03-13T17:47:00.173Z,3.90
2023-03-13T17:51:54.281Z,3.40
2023-03-13T17:56:46.944Z,4.83
2023-03-13T18:01:39.654Z,4.60
2023-03-13T18:06:33.331Z,2.83
2023-03-13T18:11:27.484Z,3.63
2023-03-13T18:16:25.231Z,3.37
2023-03-13T18:21:17.952Z,4.13
2023-03-13T18:26:20.017Z,6.30
2023-03-13T18:31:14.327Z,6.10
2023-03-13T18:36:14.948Z,9.60
2023-03-13T18:41:10.080Z,7.37
2023-03-13T18:46:03.904Z,5.00
2023-03-13T18:50:57.872Z,5.07
2023-03-13T18:55:50.591Z,4.07
2023-03-13T19:00:43.263Z,4.30
2023-03-13T19:05:36.126Z,5.10
2023-03-13T19:10:32.094Z,6.73
2023-03-13T19:15:26.714Z,3.30
2023-03-13T19:20:21.269Z,1.63
2023-03-13T19:25:16.278Z,1.53
2023-03-13T19:30:16.869Z,1.63
2023-03-13T19:35:12.304Z,1.40
2023-03-13T19:40:06.970Z,1.30
2023-03-13T19:44:59.563Z,1.70
2023-03-13T19:49:52.244Z,1.30
2023-03-13T19:54:46.452Z,1.30
2023-03-13T19:59:40.077Z,1.50
2023-03-13T20:04:33.125Z,1.90
2023-03-13T20:09:25.772Z,1.70
2023-03-13T20:14:19.776Z,1.50
2023-03-13T20:19:12.624Z,1.50
2023-03-13T20:24:05.552Z,1.77
2023-03-13T20:28:58.466Z,3.07
2023-03-13T20:33:52.654Z,2.60
2023-03-13T20:38:45.291Z,8.77
2023-03-13T20:43:38.242Z,2.77
2023-03-13T20:48:31.053Z,0.80
2023-03-13T20:53:25.525Z,0.90
2023-03-13T20:58:20.167Z,0.70
2023-03-13T21:03:14.117Z,0.70
2023-03-13T21:08:06.748Z,1.33
2023-03-13T21:13:00.732Z,1.80
2023-03-13T21:17:53.782Z,2.10
2023-03-13T21:22:46.396Z,1.70
2023-03-13T21:27:39.182Z,3.80
2023-03-13T21:32:33.111Z,2.30
2023-03-13T21:37:25.738Z,3.20
2023-03-13T21:42:18.604Z,3.23
2023-03-13T21:47:11.290Z,2.47
2023-03-13T21:52:05.648Z,1.80
2023-03-13T21:56:58.966Z,2.13
2023-03-13T22:01:51.567Z,2.37
2023-03-13T22:06:44.446Z,2.00
2023-03-13T22:11:38.394Z,1.90
2023-03-13T22:16:31.054Z,1.90
2023-03-13T22:21:23.645Z,1.63
2023-03-13T22:26:16.226Z,1.73
2023-03-13T22:31:11.299Z,1.33
2023-03-13T22:36:04.036Z,1.30
2023-03-13T22:41:00.641Z,1.60
2023-03-13T22:45:53.216Z,1.90
2023-03-13T22:50:47.284Z,1.60
2023-03-13T22:55:39.987Z,1.63
2023-03-13T23:00:32.876Z,1.67
2023-03-13T23:05:25.477Z,1.70
2023-03-13T23:10:19.795Z,1.70
2023-03-13T23:15:12.849Z,1.77
2023-03-13T23:20:10.634Z,1.73
2023-03-13T23:25:03.281Z,1.60
2023-03-13T23:29:57.335Z,1.50
2023-03-13T23:34:49.976Z,2.00
2023-03-13T23:39:42.664Z,1.50
2023-03-13T23:44:35.240Z,1.30
2023-03-13T23:49:29.162Z,1.30
2023-03-13T23:54:23.157Z,1.27
2023-03-13T23:59:15.944Z,1.20
